createdAt,value
2022-10-11T00:26:34.440Z,6.98
2022-10-11T00:56:37.614Z,7.54
2022-10-11T01:26:40.601Z,8.37
2022-10-11T01:56:43.708Z,8.91
2022-10-11T02:26:46.824Z,9.34
2022-10-11T02:56:50.675Z,9.34
2022-10-11T03:26:53.932Z,8.60
2022-10-11T03:56:57.982Z,7.89
2022-10-11T04:27:01.476Z,7.38
2022-10-11T04:57:04.313Z,6.89
2022-10-11T05:27:07.958Z,6.43
2022-10-11T05:57:10.728Z,6.32
2022-10-11T06:27:14.802Z,6.87
2022-10-11T06:57:17.482Z,8.07
2022-10-11T07:27:21.759Z,8.97
2022-10-11T07:57:24.527Z,9.29
2022-10-11T08:27:28.410Z,9.82
2022-10-11T08:57:31.115Z,10.70
2022-10-11T09:27:57.739Z,12.00
2022-10-11T09:57:58.421Z,13.20
2022-10-11T10:28:01.747Z,14.05
2022-10-11T10:58:04.421Z,13.70
2022-10-11T11:28:09.650Z,13.57
2022-10-11T11:58:12.580Z,13.69
2022-10-11T12:28:16.630Z,13.73
2022-10-11T12:58:19.409Z,14.20
2022-10-11T13:28:23.108Z,14.48
2022-10-11T13:58:25.938Z,14.45
2022-10-11T14:28:29.263Z,13.53
2022-10-11T14:58:32.117Z,12.27
2022-10-11T15:28:36.362Z,11.29
2022-10-11T15:58:39.263Z,10.28
2022-10-11T16:28:43.516Z,9.37
2022-10-11T16:58:46.300Z,8.30
2022-10-11T17:28:51.067Z,7.59
2022-10-11T17:58:54.103Z,6.94
2022-10-11T18:28:57.401Z,6.37
2022-10-11T18:59:00.334Z,5.93
2022-10-11T19:29:05.731Z,5.62
2022-10-11T19:59:08.877Z,5.13
2022-10-11T20:29:12.050Z,4.88
2022-10-11T20:59:17.451Z,4.48
2022-10-11T21:29:21.185Z,4.08
2022-10-11T21:59:24.303Z,3.58
2022-10-11T22:29:31.770Z,3.29
2022-10-11T22:59:37.425Z,3.19
2022-10-11T23:29:41.198Z,2.93
2022-10-11T23:59:44.141Z,2.44
